Time;durP1;ratioP1;P1;durP2;ratioP2;P2;SDS_P1;SDS_P2;PMS_P1;PMS_P2;Temp;Humidity;BMP_temperature;BMP_pressure;BME280_temperature;BME280_humidity;BME280_pressure;Samples;Min_cycle;Max_cycle;Signal;HPM_P1;HPM_P2
2022/04/19 00:01:50;;;;;;;;;;;2.60;99.90;;;;;;5052430;28;19963;-77
2022/04/19 00:04:16;;;;;;;;;;;2.50;99.90;;;;;;5052116;28;19912;-75
2022/04/19 00:06:44;;;;;;;;;;;2.50;99.90;;;;;;5052447;28;19919;-75
2022/04/19 00:09:09;;;;;;;;;;;2.40;99.90;;;;;;5052317;28;20369;-75
2022/04/19 00:11:35;;;;;;;;;;;2.40;99.90;;;;;;5050794;28;20016;-75
2022/04/19 00:14:01;;;;;;;;;;;2.40;99.90;;;;;;5051602;28;20003;-76
2022/04/19 00:16:26;;;;;;;;;;;2.50;99.90;;;;;;5051933;28;19915;-76
2022/04/19 00:18:51;;;;;;;;;;;2.50;99.90;;;;;;5052024;28;19917;-75
2022/04/19 00:21:18;;;;;;;;;;;2.40;99.90;;;;;;5051858;28;19955;-75
2022/04/19 00:23:46;;;;;;;;;;;2.20;99.90;;;;;;5051852;28;19935;-76
2022/04/19 00:26:11;;;;;;;;;;;2.20;99.90;;;;;;5051361;28;19952;-75
2022/04/19 00:28:37;;;;;;;;;;;2.10;99.90;;;;;;5051542;28;20397;-76
2022/04/19 00:31:04;;;;;;;;;;;2.00;99.90;;;;;;5051974;28;19916;-75
2022/04/19 00:33:30;;;;;;;;;;;1.90;99.90;;;;;;5051453;28;19913;-75
2022/04/19 00:35:55;;;;;;;;;;;1.90;99.90;;;;;;5051700;28;19913;-75
2022/04/19 00:38:22;;;;;;;;;;;1.90;99.90;;;;;;5051846;28;19909;-75
2022/04/19 00:40:48;;;;;;;;;;;2.00;99.90;;;;;;5051682;28;19909;-76
2022/04/19 00:43:16;;;;;;;;;;;2.00;99.90;;;;;;5051397;28;20404;-75
2022/04/19 00:45:41;;;;;;;;;;;2.00;99.90;;;;;;5051686;28;20002;-76
2022/04/19 00:48:07;;;;;;;;;;;2.00;99.90;;;;;;5051666;28;19948;-75
2022/04/19 00:50:32;;;;;;;;;;;1.90;99.90;;;;;;5044961;28;19916;-75
2022/04/19 00:52:58;;;;;;;;;;;1.80;99.90;;;;;;5051413;28;20324;-76
2022/04/19 00:55:24;;;;;;;;;;;1.80;99.90;;;;;;5051192;28;19920;-75
2022/04/19 00:57:51;;;;;;;;;;;1.70;99.90;;;;;;5050728;28;19913;-76
2022/04/19 01:00:17;;;;;;;;;;;1.70;99.90;;;;;;5051462;28;19909;-76
2022/04/19 01:02:42;;;;;;;;;;;1.70;99.90;;;;;;5051069;28;19909;-76
2022/04/19 01:05:09;;;;;;;;;;;1.70;99.90;;;;;;5051043;28;19908;-75
2022/04/19 01:07:36;;;;;;;;;;;1.80;99.90;;;;;;5051329;28;19916;-76
2022/04/19 01:10:02;;;;;;;;;;;1.70;99.90;;;;;;5051282;28;19948;-76
2022/04/19 01:15:13;;;;;;;;;;;1.60;99.90;;;;;;5045180;28;20000;-75
2022/04/19 01:17:39;;;;;;;;;;;1.60;99.90;;;;;;5051122;28;20007;-76
2022/04/19 01:20:08;;;;;;;;;;;1.60;99.90;;;;;;5050626;28;19913;-75
2022/04/19 01:22:34;;;;;;;;;;;1.60;99.90;;;;;;5050933;28;19942;-75
2022/04/19 01:25:00;;;;;;;;;;;1.50;99.90;;;;;;5051229;28;20251;-76
2022/04/19 01:27:25;;;;;;;;;;;1.50;99.90;;;;;;5050792;28;19916;-76
2022/04/19 01:29:52;;;;;;;;;;;1.40;99.90;;;;;;5050804;28;19916;-76
2022/04/19 01:32:20;;;;;;;;;;;1.40;99.90;;;;;;5044350;28;19916;-75
2022/04/19 01:34:46;;;;;;;;;;;1.50;99.90;;;;;;5050651;28;20373;-75
2022/04/19 01:37:12;;;;;;;;;;;1.50;99.90;;;;;;5044384;28;20016;-75
2022/04/19 01:42:43;;;;;;;;;;;1.40;99.90;;;;;;5046499;28;19909;-75
2022/04/19 01:45:10;;;;;;;;;;;1.20;99.90;;;;;;5048504;28;20692;-75
2022/04/19 01:47:35;;;;;;;;;;;1.10;99.90;;;;;;5049305;28;20293;-75
2022/04/19 01:50:01;;;;;;;;;;;0.90;99.90;;;;;;5051199;28;19909;-75
2022/04/19 01:52:26;;;;;;;;;;;1.00;99.90;;;;;;5050917;28;20376;-75
2022/04/19 01:54:51;;;;;;;;;;;1.20;99.90;;;;;;5056013;28;19913;-75
2022/04/19 01:57:19;;;;;;;;;;;1.30;99.90;;;;;;5055556;28;19999;-75
2022/04/19 01:59:45;;;;;;;;;;;1.30;99.90;;;;;;5050956;28;19913;-75
2022/04/19 02:02:10;;;;;;;;;;;1.40;99.90;;;;;;5050676;28;19955;-75
2022/04/19 02:04:35;;;;;;;;;;;1.50;99.90;;;;;;5050400;28;20003;-75
2022/04/19 02:07:03;;;;;;;;;;;1.40;99.90;;;;;;5050775;28;20447;-75
2022/04/19 02:09:29;;;;;;;;;;;1.20;99.90;;;;;;5050653;28;19924;-76
2022/04/19 02:11:54;;;;;;;;;;;1.20;99.90;;;;;;5049237;28;19913;-75
2022/04/19 02:14:22;;;;;;;;;;;1.20;99.90;;;;;;5050358;28;19913;-75
2022/04/19 02:16:48;;;;;;;;;;;1.10;99.90;;;;;;5050506;28;19909;-75
2022/04/19 02:19:13;;;;;;;;;;;1.10;99.90;;;;;;5050624;28;20392;-75
2022/04/19 02:21:39;;;;;;;;;;;1.10;99.90;;;;;;5050268;28;19913;-75
2022/04/19 02:24:04;;;;;;;;;;;1.10;99.90;;;;;;5050185;28;20063;-76
2022/04/19 02:26:30;;;;;;;;;;;1.20;99.90;;;;;;5050432;28;19909;-75
2022/04/19 02:28:56;;;;;;;;;;;1.10;99.90;;;;;;5050104;28;19923;-75
2022/04/19 02:31:22;;;;;;;;;;;1.00;99.90;;;;;;5050295;28;19999;-75
2022/04/19 02:33:47;;;;;;;;;;;1.10;99.90;;;;;;5053607;28;19955;-75
2022/04/19 02:36:13;;;;;;;;;;;1.00;99.90;;;;;;5054095;28;19962;-75
2022/04/19 02:38:38;;;;;;;;;;;1.00;99.90;;;;;;5054027;28;19916;-76
2022/04/19 02:41:04;;;;;;;;;;;0.90;99.90;;;;;;5052791;28;19919;-75
2022/04/19 02:43:30;;;;;;;;;;;0.70;99.90;;;;;;5053692;28;19909;-76
2022/04/19 02:45:55;;;;;;;;;;;0.80;99.90;;;;;;5054019;28;19934;-75
2022/04/19 02:48:21;;;;;;;;;;;0.80;99.90;;;;;;5053895;28;19934;-75
2022/04/19 02:50:49;;;;;;;;;;;0.80;99.90;;;;;;5053791;28;20434;-76
2022/04/19 02:53:14;;;;;;;;;;;0.80;99.90;;;;;;5053384;28;19920;-75
2022/04/19 02:55:40;;;;;;;;;;;0.80;99.90;;;;;;5052334;28;19913;-76
2022/04/19 02:58:07;;;;;;;;;;;0.70;99.90;;;;;;5053427;28;19962;-75
2022/04/19 03:00:32;;;;;;;;;;;0.60;99.90;;;;;;5053844;28;19909;-75
2022/04/19 03:02:58;;;;;;;;;;;0.60;99.90;;;;;;5053451;28;19991;-75
2022/04/19 03:05:23;;;;;;;;;;;0.60;99.90;;;;;;5053475;28;19916;-75
2022/04/19 03:07:49;;;;;;;;;;;0.50;99.90;;;;;;5053587;28;20324;-75
2022/04/19 03:10:15;;;;;;;;;;;0.60;99.90;;;;;;5053691;28;19916;-75
2022/04/19 03:12:42;;;;;;;;;;;0.70;99.90;;;;;;5053405;28;20486;-75
2022/04/19 03:15:07;;;;;;;;;;;0.70;99.90;;;;;;5053180;28;19912;-75
2022/04/19 03:17:34;;;;;;;;;;;0.60;99.90;;;;;;5053492;28;20145;-75
2022/04/19 03:20:00;;;;;;;;;;;0.60;99.90;;;;;;5053476;28;19999;-75
2022/04/19 03:27:41;;;;;;;;;;;0.30;99.90;;;;;;5053343;28;20742;-75
2022/04/19 03:27:55;;;;;;;;;;;0.50;99.90;;;;;;5052940;28;20636;-76
2022/04/19 03:30:21;;;;;;;;;;;0.60;99.90;;;;;;5053479;28;19909;-75
2022/04/19 03:32:47;;;;;;;;;;;0.50;99.90;;;;;;5052982;28;19909;-75
2022/04/19 03:35:13;;;;;;;;;;;0.50;99.90;;;;;;5052990;28;19917;-75
2022/04/19 03:37:41;;;;;;;;;;;0.40;99.90;;;;;;5053626;28;19962;-76
2022/04/19 03:40:07;;;;;;;;;;;0.50;99.90;;;;;;5051990;28;20427;-76
2022/04/19 03:42:33;;;;;;;;;;;0.60;99.90;;;;;;5052504;28;20061;-75
2022/04/19 03:44:58;;;;;;;;;;;0.60;99.90;;;;;;5052806;28;20388;-75
2022/04/19 03:47:24;;;;;;;;;;;0.50;99.90;;;;;;5053017;28;20411;-75
2022/04/19 03:49:49;;;;;;;;;;;0.40;99.90;;;;;;5052956;28;19909;-76
2022/04/19 03:52:15;;;;;;;;;;;0.30;99.90;;;;;;5052786;28;19995;-75
2022/04/19 03:54:40;;;;;;;;;;;0.10;99.90;;;;;;5052795;28;19946;-75
2022/04/19 03:57:07;;;;;;;;;;;0.10;99.90;;;;;;5051933;28;19955;-75
2022/04/19 03:59:33;;;;;;;;;;;0.10;99.90;;;;;;5052698;28;20384;-75
2022/04/19 04:01:59;;;;;;;;;;;0.10;99.90;;;;;;5052373;28;20003;-75
2022/04/19 04:04:30;;;;;;;;;;;0.10;99.90;;;;;;5052458;28;20381;-75
2022/04/19 04:06:58;;;;;;;;;;;0.30;99.90;;;;;;5052754;28;19909;-76
2022/04/19 04:09:24;;;;;;;;;;;0.30;99.90;;;;;;5052768;28;19950;-76
2022/04/19 04:11:50;;;;;;;;;;;0.40;99.90;;;;;;5051075;28;19995;-75
2022/04/19 04:14:15;;;;;;;;;;;0.40;99.90;;;;;;5050456;28;19980;-75
2022/04/19 04:16:41;;;;;;;;;;;0.70;99.90;;;;;;5052810;28;19919;-76
2022/04/19 04:19:06;;;;;;;;;;;0.80;99.90;;;;;;5052417;28;19944;-75
2022/04/19 04:21:32;;;;;;;;;;;0.70;99.90;;;;;;5052235;28;19909;-75
2022/04/19 04:23:57;;;;;;;;;;;0.70;99.90;;;;;;5052073;28;20472;-76
2022/04/19 04:26:23;;;;;;;;;;;0.50;99.90;;;;;;5051490;28;19909;-75
2022/04/19 04:28:48;;;;;;;;;;;0.50;99.90;;;;;;5053294;28;19908;-75
2022/04/19 04:31:14;;;;;;;;;;;0.50;99.90;;;;;;5051555;28;19908;-76
2022/04/19 04:33:39;;;;;;;;;;;0.40;99.90;;;;;;5052013;28;19912;-75
2022/04/19 04:36:05;;;;;;;;;;;0.30;99.90;;;;;;5052088;28;19913;-75
2022/04/19 04:38:30;;;;;;;;;;;0.20;99.90;;;;;;5052048;28;19972;-75
2022/04/19 04:40:56;;;;;;;;;;;0.10;99.90;;;;;;5051740;28;19924;-75
2022/04/19 04:43:21;;;;;;;;;;;0.10;99.90;;;;;;5051452;28;19935;-75
2022/04/19 04:49:35;;;;;;;;;;;0.10;99.90;;;;;;5051696;28;19913;-76
2022/04/19 04:51:16;;;;;;;;;;;0.40;99.90;;;;;;5045594;28;19934;-76
2022/04/19 04:53:42;;;;;;;;;;;0.30;99.90;;;;;;5051683;28;19913;-75
2022/04/19 04:56:07;;;;;;;;;;;0.30;99.90;;;;;;5049754;28;20263;-76
2022/04/19 04:58:33;;;;;;;;;;;0.40;99.90;;;;;;5051271;28;19939;-75
2022/04/19 05:00:58;;;;;;;;;;;0.50;99.90;;;;;;5050514;28;19915;-76
2022/04/19 05:03:24;;;;;;;;;;;0.50;99.90;;;;;;5049728;28;19916;-76
2022/04/19 05:05:49;;;;;;;;;;;0.40;99.90;;;;;;5051562;28;19909;-75
2022/04/19 05:08:18;;;;;;;;;;;0.50;99.90;;;;;;5051542;28;19982;-76
2022/04/19 05:10:43;;;;;;;;;;;0.40;99.90;;;;;;5051216;28;19909;-75
2022/04/19 05:13:09;;;;;;;;;;;0.50;99.90;;;;;;5051134;28;19916;-76
2022/04/19 05:15:35;;;;;;;;;;;0.70;99.90;;;;;;5051121;28;20460;-76
2022/04/19 05:18:00;;;;;;;;;;;0.80;99.90;;;;;;5051115;28;19917;-76
2022/04/19 05:20:26;;;;;;;;;;;0.90;99.90;;;;;;5051333;28;20391;-76
2022/04/19 05:22:51;;;;;;;;;;;1.10;99.90;;;;;;5051029;28;20015;-76
2022/04/19 05:25:17;;;;;;;;;;;1.30;99.90;;;;;;5049601;28;20251;-76
2022/04/19 05:27:42;;;;;;;;;;;1.50;99.90;;;;;;5051391;28;19916;-75
2022/04/19 05:30:08;;;;;;;;;;;1.60;99.90;;;;;;5051053;28;19916;-76
2022/04/19 05:32:33;;;;;;;;;;;1.80;99.90;;;;;;5051040;28;19994;-75
2022/04/19 05:34:59;;;;;;;;;;;1.90;99.90;;;;;;5050827;28;20277;-75
2022/04/19 05:37:24;;;;;;;;;;;2.10;99.90;;;;;;5051120;28;20007;-76
2022/04/19 05:39:50;;;;;;;;;;;2.20;99.90;;;;;;5050891;28;20073;-76
2022/04/19 05:42:15;;;;;;;;;;;2.20;99.90;;;;;;5051088;28;19908;-76
2022/04/19 05:44:41;;;;;;;;;;;2.30;99.90;;;;;;5050689;28;19932;-76
2022/04/19 05:47:07;;;;;;;;;;;2.40;99.90;;;;;;5051134;28;20289;-76
2022/04/19 05:49:32;;;;;;;;;;;2.40;99.90;;;;;;5051511;28;19954;-76
2022/04/19 05:51:58;;;;;;;;;;;2.50;99.90;;;;;;5050753;28;19931;-75
2022/04/19 05:54:23;;;;;;;;;;;2.60;99.90;;;;;;5050447;28;20480;-75
2022/04/19 05:56:49;;;;;;;;;;;2.70;99.90;;;;;;5050844;28;19915;-75
2022/04/19 05:59:14;;;;;;;;;;;3.00;99.90;;;;;;5046624;28;20012;-75
2022/04/19 06:07:08;;;;;;;;;;;3.30;99.90;;;;;;5053761;28;20397;-76
2022/04/19 06:09:34;;;;;;;;;;;3.30;99.90;;;;;;5050582;28;19909;-76
2022/04/19 06:12:00;;;;;;;;;;;3.50;99.90;;;;;;5054592;28;20034;-76
2022/04/19 06:14:26;;;;;;;;;;;3.50;99.90;;;;;;5054508;28;20366;-76
2022/04/19 06:16:51;;;;;;;;;;;3.70;99.90;;;;;;5054493;28;19916;-75
2022/04/19 06:19:17;;;;;;;;;;;3.70;99.90;;;;;;5054389;28;19955;-76
2022/04/19 06:21:42;;;;;;;;;;;3.70;99.90;;;;;;5054689;28;19913;-76
2022/04/19 06:24:09;;;;;;;;;;;3.70;99.90;;;;;;5054585;28;19912;-76
2022/04/19 06:26:35;;;;;;;;;;;3.90;99.90;;;;;;5055249;28;19962;-76
2022/04/19 06:29:01;;;;;;;;;;;4.10;99.90;;;;;;5054886;28;20007;-76
2022/04/19 06:31:27;;;;;;;;;;;4.10;99.90;;;;;;5054709;28;20307;-76
2022/04/19 06:33:53;;;;;;;;;;;4.20;99.90;;;;;;5054406;28;20251;-76
2022/04/19 06:36:19;;;;;;;;;;;4.30;99.90;;;;;;5054563;28;19913;-76
2022/04/19 06:38:44;;;;;;;;;;;4.50;99.90;;;;;;5054568;28;19909;-76
2022/04/19 06:41:11;;;;;;;;;;;4.70;99.90;;;;;;5054008;28;20346;-76
2022/04/19 06:43:37;;;;;;;;;;;4.80;99.90;;;;;;5052620;28;19909;-76
2022/04/19 06:46:02;;;;;;;;;;;4.90;99.90;;;;;;5054056;28;19991;-76
2022/04/19 06:48:29;;;;;;;;;;;5.00;99.90;;;;;;5054043;28;19912;-76
2022/04/19 06:50:54;;;;;;;;;;;5.20;99.90;;;;;;5054100;28;19913;-76
2022/04/19 06:53:20;;;;;;;;;;;5.50;99.90;;;;;;5053930;28;20412;-76
2022/04/19 06:55:45;;;;;;;;;;;5.70;99.90;;;;;;5054528;28;20332;-75
2022/04/19 06:58:11;;;;;;;;;;;5.90;99.90;;;;;;5054324;28;19909;-76
2022/04/19 07:00:36;;;;;;;;;;;5.90;99.90;;;;;;5051313;28;19909;-76
2022/04/19 07:03:02;;;;;;;;;;;6.00;99.90;;;;;;5053915;28;19908;-76
2022/04/19 07:05:27;;;;;;;;;;;6.20;99.90;;;;;;5053585;28;19916;-76
2022/04/19 07:07:53;;;;;;;;;;;6.50;99.90;;;;;;5052319;28;19909;-76
2022/04/19 07:10:18;;;;;;;;;;;6.60;99.90;;;;;;5053707;28;19915;-76
2022/04/19 07:12:44;;;;;;;;;;;6.90;99.90;;;;;;5053321;28;19909;-76
2022/04/19 07:15:10;;;;;;;;;;;7.20;99.90;;;;;;5053511;28;19931;-74
2022/04/19 07:17:44;;;;;;;;;;;7.50;99.90;;;;;;5052453;28;19916;-74
2022/04/19 07:28:42;;;;;;;;;;;9.40;97.20;;;;;;5046372;28;20004;-74
2022/04/19 07:31:07;;;;;;;;;;;9.30;98.00;;;;;;5048486;28;19940;-75
2022/04/19 07:33:37;;;;;;;;;;;9.80;98.00;;;;;;5052856;28;20251;-75
2022/04/19 07:36:02;;;;;;;;;;;11.00;94.20;;;;;;5052661;28;20008;-75
2022/04/19 07:38:28;;;;;;;;;;;11.10;93.20;;;;;;5053165;28;19998;-75
2022/04/19 07:40:54;;;;;;;;;;;11.60;92.40;;;;;;5052968;28;19915;-75
2022/04/19 07:43:19;;;;;;;;;;;12.70;90.50;;;;;;5052702;28;19916;-75
2022/04/19 07:45:44;;;;;;;;;;;13.40;84.70;;;;;;5053055;28;19908;-75
2022/04/19 07:48:10;;;;;;;;;;;14.30;80.00;;;;;;5053015;28;19909;-75
2022/04/19 07:50:36;;;;;;;;;;;14.50;79.40;;;;;;5053042;28;20024;-75
2022/04/19 07:53:02;;;;;;;;;;;15.60;77.80;;;;;;5052683;28;19909;-75
2022/04/19 07:55:27;;;;;;;;;;;16.10;75.50;;;;;;5052619;28;20273;-75
2022/04/19 07:57:53;;;;;;;;;;;15.90;74.90;;;;;;5052850;28;19909;-75
2022/04/19 08:00:19;;;;;;;;;;;16.50;69.70;;;;;;5047065;28;20318;-75
2022/04/19 08:02:45;;;;;;;;;;;15.80;70.50;;;;;;5051510;28;20369;-75
2022/04/19 08:05:11;;;;;;;;;;;15.80;71.70;;;;;;5052392;28;19948;-75
2022/04/19 08:07:36;;;;;;;;;;;15.90;70.90;;;;;;5052602;28;19908;-75
2022/04/19 08:10:03;;;;;;;;;;;15.90;71.00;;;;;;5051272;28;20400;-75
2022/04/19 08:12:28;;;;;;;;;;;17.10;67.60;;;;;;5052478;28;19936;-75
2022/04/19 08:14:55;;;;;;;;;;;16.90;69.50;;;;;;5052191;28;20385;-75
2022/04/19 08:17:21;;;;;;;;;;;17.70;67.00;;;;;;5052254;28;19921;-76
2022/04/19 08:19:46;;;;;;;;;;;17.60;61.50;;;;;;5052402;28;19913;-75
2022/04/19 08:22:12;;;;;;;;;;;18.00;62.80;;;;;;5051916;28;19916;-75
2022/04/19 08:24:38;;;;;;;;;;;18.30;60.30;;;;;;5050604;28;19952;-75
2022/04/19 08:27:04;;;;;;;;;;;18.40;61.90;;;;;;5052123;28;19931;-75
2022/04/19 08:29:30;;;;;;;;;;;18.50;56.30;;;;;;5052041;28;19944;-76
2022/04/19 08:31:55;;;;;;;;;;;19.40;57.90;;;;;;5051488;28;20349;-75
2022/04/19 08:34:21;;;;;;;;;;;19.50;53.40;;;;;;5051742;28;19948;-75
2022/04/19 08:36:47;;;;;;;;;;;19.60;53.30;;;;;;5051803;28;19919;-75
2022/04/19 08:39:12;;;;;;;;;;;19.80;53.10;;;;;;5051639;28;20366;-75
2022/04/19 08:41:41;;;;;;;;;;;20.20;54.40;;;;;;5051753;28;20288;-75
2022/04/19 08:44:08;;;;;;;;;;;20.80;53.50;;;;;;5051543;28;19995;-75
2022/04/19 08:46:37;;;;;;;;;;;19.80;54.50;;;;;;5051746;28;19908;-75
2022/04/19 08:49:04;;;;;;;;;;;20.00;54.30;;;;;;5051880;28;19909;-76
2022/04/19 08:51:30;;;;;;;;;;;20.40;51.70;;;;;;5051275;28;20439;-75
2022/04/19 08:59:28;;;;;;;;;;;22.30;48.50;;;;;;5051609;28;19915;-75
2022/04/19 09:01:53;;;;;;;;;;;21.80;48.70;;;;;;5050758;28;20416;-75
2022/04/19 09:04:21;;;;;;;;;;;22.10;49.80;;;;;;5050971;28;19913;-75
2022/04/19 09:06:54;;;;;;;;;;;21.80;51.20;;;;;;5051593;28;19948;-75
2022/04/19 09:09:21;;;;;;;;;;;22.80;53.10;;;;;;5051117;28;19966;-75
2022/04/19 09:11:46;;;;;;;;;;;21.40;48.60;;;;;;5051366;28;19909;-74
2022/04/19 09:14:12;;;;;;;;;;;21.00;48.80;;;;;;5051428;28;19932;-75
2022/04/19 09:16:37;;;;;;;;;;;20.90;51.00;;;;;;5051996;28;19934;-74
2022/04/19 09:19:03;;;;;;;;;;;23.00;49.00;;;;;;5051173;28;20317;-77
2022/04/19 09:21:37;;;;;;;;;;;22.80;49.00;;;;;;5051233;28;20320;-74
2022/04/19 09:24:15;;;;;;;;;;;23.30;47.70;;;;;;5049525;28;19913;-74
2022/04/19 09:26:44;;;;;;;;;;;21.70;45.10;;;;;;5050838;28;19916;-74
2022/04/19 09:29:23;;;;;;;;;;;22.60;47.20;;;;;;5049854;28;20016;-75
2022/04/19 09:31:51;;;;;;;;;;;22.30;46.70;;;;;;5050636;28;19943;-75
2022/04/19 09:34:33;;;;;;;;;;;22.60;45.90;;;;;;5050246;28;20255;-75
2022/04/19 09:37:10;;;;;;;;;;;23.70;47.80;;;;;;5051310;28;19979;-75
2022/04/19 09:39:39;;;;;;;;;;;24.00;46.60;;;;;;5045836;28;20414;-78
2022/04/19 09:42:06;;;;;;;;;;;24.20;47.70;;;;;;5055812;28;19909;-76
2022/04/19 09:44:42;;;;;;;;;;;23.40;46.60;;;;;;5057213;28;19913;-76
2022/04/19 09:47:08;;;;;;;;;;;23.50;43.40;;;;;;5057517;28;20381;-77
2022/04/19 09:49:40;;;;;;;;;;;25.10;43.20;;;;;;5057434;28;19999;-76
2022/04/19 09:52:06;;;;;;;;;;;25.20;41.10;;;;;;5057180;28;20286;-76
2022/04/19 09:54:31;;;;;;;;;;;24.70;44.10;;;;;;5056922;28;19913;-76
2022/04/19 09:57:06;;;;;;;;;;;25.40;43.40;;;;;;5056892;28;19909;-76
2022/04/19 09:59:33;;;;;;;;;;;26.20;42.80;;;;;;5055082;28;20313;-76
2022/04/19 10:10:11;;;;;;;;;;;23.70;40.80;;;;;;5054110;28;19916;-76
2022/04/19 10:12:37;;;;;;;;;;;23.90;42.70;;;;;;5053911;28;20325;-76
2022/04/19 10:15:06;;;;;;;;;;;23.80;38.60;;;;;;5055824;28;19917;-76
2022/04/19 10:17:32;;;;;;;;;;;23.10;38.80;;;;;;5056910;28;19954;-76
2022/04/19 10:20:00;;;;;;;;;;;24.10;38.70;;;;;;5057411;28;19912;-76
2022/04/19 10:22:27;;;;;;;;;;;25.50;37.80;;;;;;5057037;28;19923;-76
2022/04/19 10:24:52;;;;;;;;;;;24.50;36.70;;;;;;5057105;28;19919;-76
2022/04/19 10:27:19;;;;;;;;;;;24.90;37.90;;;;;;5055528;28;20290;-76
2022/04/19 10:29:46;;;;;;;;;;;25.00;39.00;;;;;;5057079;28;19909;-76
2022/04/19 10:32:11;;;;;;;;;;;24.40;39.00;;;;;;5056744;28;19951;-76
2022/04/19 10:34:37;;;;;;;;;;;23.50;37.90;;;;;;5056995;28;19952;-76
2022/04/19 10:37:15;;;;;;;;;;;23.60;38.90;;;;;;5057116;28;19920;-76
2022/04/19 10:39:52;;;;;;;;;;;24.90;36.60;;;;;;5057010;28;19916;-76
2022/04/19 10:42:30;;;;;;;;;;;24.90;38.40;;;;;;5056970;28;19956;-76
2022/04/19 10:44:56;;;;;;;;;;;25.30;38.20;;;;;;5056913;28;19912;-76
2022/04/19 10:47:23;;;;;;;;;;;26.60;38.00;;;;;;5058479;28;20416;-76
2022/04/19 10:49:48;;;;;;;;;;;26.20;35.60;;;;;;5058344;28;19916;-76
2022/04/19 10:52:33;;;;;;;;;;;24.50;37.20;;;;;;5056110;28;19908;-76
2022/04/19 10:55:09;;;;;;;;;;;23.90;36.60;;;;;;5049725;28;19913;-76
2022/04/19 11:00:23;;;;;;;;;;;25.00;36.30;;;;;;5051854;28;19951;-76
2022/04/19 11:03:07;;;;;;;;;;;26.00;37.40;;;;;;5053138;28;19909;-76
2022/04/19 11:05:34;;;;;;;;;;;24.60;37.80;;;;;;5047878;28;19963;-76
2022/04/19 11:08:20;;;;;;;;;;;23.70;38.40;;;;;;5053615;28;19963;-76
2022/04/19 11:10:45;;;;;;;;;;;25.00;38.80;;;;;;5052674;28;19908;-76
2022/04/19 11:13:13;;;;;;;;;;;25.70;35.80;;;;;;5052851;28;19908;-76
2022/04/19 11:15:42;;;;;;;;;;;25.50;34.40;;;;;;5053364;28;19948;-76
2022/04/19 11:18:23;;;;;;;;;;;24.80;34.00;;;;;;5053189;28;19917;-76
2022/04/19 11:20:49;;;;;;;;;;;25.70;36.10;;;;;;5053070;28;19924;-76
2022/04/19 11:23:22;;;;;;;;;;;25.70;38.00;;;;;;5052823;28;19908;-76
2022/04/19 11:25:49;;;;;;;;;;;26.70;35.60;;;;;;5053089;28;20380;-76
2022/04/19 11:28:15;;;;;;;;;;;27.10;31.50;;;;;;5053001;28;19916;-75
2022/04/19 11:30:44;;;;;;;;;;;27.70;36.50;;;;;;5052560;28;19909;-75
2022/04/19 11:33:10;;;;;;;;;;;24.60;36.30;;;;;;5052468;28;20380;-75
2022/04/19 11:35:36;;;;;;;;;;;24.80;34.80;;;;;;5052796;28;19955;-76
2022/04/19 11:38:05;;;;;;;;;;;24.90;34.30;;;;;;5052778;28;19909;-75
2022/04/19 11:48:49;;;;;;;;;;;26.10;34.10;;;;;;5052846;28;19920;-75
2022/04/19 11:51:16;;;;;;;;;;;25.00;32.90;;;;;;5052626;28;20370;-75
2022/04/19 11:53:42;;;;;;;;;;;25.60;37.70;;;;;;5052540;28;20060;-75
2022/04/19 11:56:08;;;;;;;;;;;25.50;34.30;;;;;;5052672;28;19935;-75
2022/04/19 11:58:34;;;;;;;;;;;25.10;36.00;;;;;;5052655;28;20359;-74
2022/04/19 12:01:04;;;;;;;;;;;24.60;35.70;;;;;;5052149;28;19908;-74
2022/04/19 12:03:30;;;;;;;;;;;23.90;35.00;;;;;;5051902;28;20007;-74
2022/04/19 12:06:04;;;;;;;;;;;23.60;37.90;;;;;;5052347;28;19970;-75
2022/04/19 12:08:33;;;;;;;;;;;25.10;33.70;;;;;;5045973;28;19913;-75
2022/04/19 12:11:09;;;;;;;;;;;25.70;36.10;;;;;;5046060;28;19916;-75
2022/04/19 12:13:35;;;;;;;;;;;25.40;34.00;;;;;;5051935;28;20019;-74
2022/04/19 12:16:01;;;;;;;;;;;23.50;34.50;;;;;;5052200;28;20378;-75
2022/04/19 12:18:33;;;;;;;;;;;24.20;34.30;;;;;;5052352;28;19932;-74
2022/04/19 12:20:59;;;;;;;;;;;24.50;34.90;;;;;;5052100;28;19915;-75
2022/04/19 12:23:25;;;;;;;;;;;24.00;35.60;;;;;;5050568;28;19908;-74
2022/04/19 12:25:57;;;;;;;;;;;23.40;38.50;;;;;;5052014;28;19913;-75
2022/04/19 12:28:23;;;;;;;;;;;24.40;36.40;;;;;;5052263;28;19909;-75
2022/04/19 12:30:48;;;;;;;;;;;24.20;39.30;;;;;;5049535;28;20439;-75
2022/04/19 12:33:14;;;;;;;;;;;22.90;39.00;;;;;;5051322;28;20003;-75
2022/04/19 12:35:40;;;;;;;;;;;24.50;34.50;;;;;;5051779;28;19942;-75
2022/04/19 12:38:11;;;;;;;;;;;26.00;33.50;;;;;;5051947;28;20409;-75
2022/04/19 12:40:37;;;;;;;;;;;24.00;35.90;;;;;;5051583;28;19913;-75
2022/04/19 12:43:03;;;;;;;;;;;24.10;35.60;;;;;;5052861;28;19947;-75
2022/04/19 12:45:32;;;;;;;;;;;23.90;36.20;;;;;;5056460;28;20313;-74
2022/04/19 12:48:00;;;;;;;;;;;24.20;36.20;;;;;;5057437;28;19909;-75
2022/04/19 12:50:27;;;;;;;;;;;23.80;35.40;;;;;;5056035;28;19909;-75
2022/04/19 12:52:52;;;;;;;;;;;25.60;36.60;;;;;;5051848;28;20050;-75
2022/04/19 12:58:11;;;;;;;;;;;24.20;36.90;;;;;;5051807;28;19939;-75
2022/04/19 13:00:36;;;;;;;;;;;22.00;38.00;;;;;;5046776;28;19909;-75
2022/04/19 13:03:03;;;;;;;;;;;21.70;39.60;;;;;;5051156;28;19916;-75
2022/04/19 13:12:16;;;;;;;;;;;20.90;40.60;;;;;;5051284;28;19908;-75
2022/04/19 13:13:42;;;;;;;;;;;17.10;45.60;;;;;;5051165;28;20005;-75
2022/04/19 13:16:08;;;;;;;;;;;16.80;46.30;;;;;;5050441;28;20016;-75
2022/04/19 13:18:34;;;;;;;;;;;17.10;47.50;;;;;;5051090;28;19923;-75
2022/04/19 13:20:59;;;;;;;;;;;16.70;47.40;;;;;;5051176;28;19909;-75
2022/04/19 13:23:25;;;;;;;;;;;17.00;49.30;;;;;;5050878;28;19909;-74
2022/04/19 13:25:51;;;;;;;;;;;16.80;48.80;;;;;;5051250;28;19971;-74
2022/04/19 13:28:17;;;;;;;;;;;16.80;48.10;;;;;;5050163;28;19967;-74
2022/04/19 13:30:43;;;;;;;;;;;16.70;49.00;;;;;;5049236;28;20374;-75
2022/04/19 13:33:09;;;;;;;;;;;16.70;48.80;;;;;;5050394;28;19909;-74
2022/04/19 13:35:34;;;;;;;;;;;17.20;51.90;;;;;;5050906;28;20258;-74
2022/04/19 13:40:44;;;;;;;;;;;16.70;48.50;;;;;;5051167;28;19963;-75
2022/04/19 13:43:09;;;;;;;;;;;16.80;49.30;;;;;;5050538;28;19917;-74
2022/04/19 13:45:36;;;;;;;;;;;16.60;49.50;;;;;;5050876;28;20412;-75
2022/04/19 13:48:02;;;;;;;;;;;16.40;48.50;;;;;;5050905;28;19909;-75
2022/04/19 13:50:27;;;;;;;;;;;16.50;49.80;;;;;;5050988;28;19951;-74
2022/04/19 13:52:52;;;;;;;;;;;16.70;50.80;;;;;;5050538;28;19909;-74
2022/04/19 13:55:19;;;;;;;;;;;16.80;51.50;;;;;;5050535;28;20008;-74
2022/04/19 13:57:45;;;;;;;;;;;16.70;50.50;;;;;;5050708;28;19920;-74
2022/04/19 14:00:13;;;;;;;;;;;17.40;50.30;;;;;;5050647;28;19939;-75
2022/04/19 14:02:42;;;;;;;;;;;21.20;43.50;;;;;;5056137;28;19913;-75
2022/04/19 14:05:09;;;;;;;;;;;22.30;40.10;;;;;;5050768;28;19909;-75
2022/04/19 14:07:34;;;;;;;;;;;23.20;41.50;;;;;;5035849;28;19909;-75
2022/04/19 14:10:00;;;;;;;;;;;22.80;36.70;;;;;;5050508;28;19917;-75
2022/04/19 14:12:25;;;;;;;;;;;22.70;37.70;;;;;;5050366;28;20306;-75
2022/04/19 14:14:51;;;;;;;;;;;24.00;37.50;;;;;;5050281;28;19917;-75
2022/04/19 14:17:16;;;;;;;;;;;24.60;37.80;;;;;;5049169;28;19913;-75
2022/04/19 14:19:42;;;;;;;;;;;23.30;40.90;;;;;;5050557;28;19916;-75
2022/04/19 14:22:08;;;;;;;;;;;23.40;40.00;;;;;;5050307;28;19919;-75
2022/04/19 14:24:33;;;;;;;;;;;24.30;39.00;;;;;;5050387;28;19944;-75
2022/04/19 14:26:59;;;;;;;;;;;24.60;38.60;;;;;;5051130;28;20157;-75
2022/04/19 14:34:52;;;;;;;;;;;24.10;37.00;;;;;;5054149;28;20278;-75
2022/04/19 14:37:18;;;;;;;;;;;24.20;38.30;;;;;;5054044;28;19908;-75
2022/04/19 14:39:43;;;;;;;;;;;25.20;38.60;;;;;;5054123;28;19928;-74
2022/04/19 14:42:09;;;;;;;;;;;25.60;36.80;;;;;;5053910;28;19963;-75
2022/04/19 14:44:34;;;;;;;;;;;24.90;36.30;;;;;;5053744;28;20000;-75
2022/04/19 14:47:00;;;;;;;;;;;24.90;38.30;;;;;;5053962;28;19912;-75
2022/04/19 14:49:26;;;;;;;;;;;25.30;34.00;;;;;;5053716;28;19916;-75
2022/04/19 14:54:35;;;;;;;;;;;23.00;37.70;;;;;;5053643;28;20396;-75
2022/04/19 14:57:01;;;;;;;;;;;24.10;38.40;;;;;;5053703;28;19952;-74
2022/04/19 14:59:26;;;;;;;;;;;22.50;37.90;;;;;;5053256;28;19909;-74
2022/04/19 15:01:52;;;;;;;;;;;21.80;37.60;;;;;;5049859;28;19952;-74
2022/04/19 15:04:17;;;;;;;;;;;22.60;38.20;;;;;;5050571;28;19955;-74
2022/04/19 15:06:43;;;;;;;;;;;23.20;40.10;;;;;;5051294;28;19913;-74
2022/04/19 15:09:09;;;;;;;;;;;23.20;38.70;;;;;;5053600;28;19995;-73
2022/04/19 15:11:34;;;;;;;;;;;22.50;38.10;;;;;;5053347;28;19959;-74
2022/04/19 15:14:00;;;;;;;;;;;22.90;38.50;;;;;;5049805;28;19967;-74
2022/04/19 15:16:25;;;;;;;;;;;22.90;37.60;;;;;;5052873;28;20254;-74
2022/04/19 15:18:51;;;;;;;;;;;23.50;38.10;;;;;;5051572;28;19924;-74
2022/04/19 15:21:17;;;;;;;;;;;22.50;39.10;;;;;;5053338;28;19912;-74
2022/04/19 15:23:43;;;;;;;;;;;22.70;39.60;;;;;;5054211;28;19916;-74
2022/04/19 15:26:08;;;;;;;;;;;21.70;38.80;;;;;;5054256;28;19952;-74
2022/04/19 15:28:34;;;;;;;;;;;23.00;40.20;;;;;;5053286;28;19909;-74
2022/04/19 15:30:59;;;;;;;;;;;22.20;41.40;;;;;;5044360;28;19938;-74